Time,TemperatureF,DewpointF,PressureIn,WindDirection,WindDirectionDegrees,WindSpeedMPH,WindSpeedGustMPH,Humidity,HourlyPrecipIn,Conditions,Clouds,dailyrainin,SoftwareType,DateUTC
2014-01-28 00:02:00,-17.0,-34.2,30.06,NE,45,1.1,2.7,40,0.00,,,0.00,WUHU216TE923,2014-01-28 06:02:00,
2014-01-28 00:07:00,-17.0,-34.2,30.06,NNW,338,1.0,1.1,40,0.00,,,0.00,WUHU216TE923,2014-01-28 06:07:00,
2014-01-28 00:12:00,-17.0,-34.2,30.05,NNE,23,0.9,1.0,40,0.00,,,0.00,WUHU216TE923,2014-01-28 06:12:00,
2014-01-28 00:17:00,-17.0,-33.7,30.05,NE,45,0.7,0.9,41,0.00,,,0.00,WUHU216TE923,2014-01-28 06:17:00,
2014-01-28 00:22:00,-17.0,-33.7,30.05,SSE,158,0.6,3.4,41,0.00,,,0.00,WUHU216TE923,2014-01-28 06:22:00,
2014-01-28 00:27:00,-17.0,-34.2,30.05,WSW,248,0.3,3.4,40,0.00,,,0.00,WUHU216TE923,2014-01-28 06:27:00,
2014-01-28 00:32:00,-17.0,-34.2,30.05,SW,225,0.2,2.5,40,0.00,,,0.00,WUHU216TE923,2014-01-28 06:32:00,
2014-01-28 00:37:00,-16.2,-33.0,30.05,SSE,158,0.2,0.2,41,0.00,,,0.00,WUHU216TE923,2014-01-28 06:37:00,
2014-01-28 00:42:00,-16.2,-33.0,30.05,NE,45,0.4,5.0,41,0.00,,,0.00,WUHU216TE923,2014-01-28 06:42:00,
2014-01-28 00:47:00,-15.7,-32.5,30.05,ESE,113,1.0,5.0,41,0.00,,,0.00,WUHU216TE923,2014-01-28 06:47:00,
2014-01-28 00:52:00,-16.2,-33.0,30.04,NE,45,1.3,2.3,41,0.00,,,0.00,WUHU216TE923,2014-01-28 06:52:00,
2014-01-28 00:57:00,-15.7,-32.1,30.04,WNW,293,0.9,2.3,42,0.00,,,0.00,WUHU216TE923,2014-01-28 06:57:00,
2014-01-28 01:02:00,-15.7,-32.1,30.04,NE,45,0.7,2.3,42,0.00,,,0.00,WUHU216TE923,2014-01-28 07:02:00,
2014-01-28 01:07:00,-15.7,-32.1,30.04,SSE,158,1.0,2.9,42,0.00,,,0.00,WUHU216TE923,2014-01-28 07:07:00,
2014-01-28 01:12:00,-15.7,-32.1,30.05,NW,315,1.3,3.5,42,0.00,,,0.00,WUHU216TE923,2014-01-28 07:12:00,
2014-01-28 01:17:00,-15.7,-32.1,30.05,SSE,158,1.9,3.5,42,0.00,,,0.00,WUHU216TE923,2014-01-28 07:17:00,
2014-01-28 01:22:00,-15.7,-32.1,30.05,ENE,68,1.7,1.9,42,0.00,,,0.00,WUHU216TE923,2014-01-28 07:22:00,
2014-01-28 01:27:00,-16.2,-32.6,30.05,SE,135,0.9,2.3,42,0.00,,,0.00,WUHU216TE923,2014-01-28 07:27:00,
2014-01-28 01:32:00,-16.2,-32.6,30.05,ESE,113,1.0,3.5,42,0.00,,,0.00,WUHU216TE923,2014-01-28 07:32:00,
2014-01-28 01:37:00,-17.0,-33.3,30.05,East,90,1.3,3.5,42,0.00,,,0.00,WUHU216TE923,2014-01-28 07:37:00,
2014-01-28 01:42:00,-17.0,-33.3,30.05,ESE,113,1.5,5.4,42,0.00,,,0.00,WUHU216TE923,2014-01-28 07:42:00,
2014-01-28 01:47:00,-17.0,-33.3,30.05,ESE,113,0.8,5.4,42,0.00,,,0.00,WUHU216TE923,2014-01-28 07:47:00,
2014-01-28 01:52:00,-17.5,-33.7,30.05,NW,315,0.3,0.8,42,0.00,,,0.00,WUHU216TE923,2014-01-28 07:52:00,
2014-01-28 01:57:00,-17.0,-33.3,30.05,ESE,113,0.5,0.5,42,0.00,,,0.00,WUHU216TE923,2014-01-28 07:57:00,
2014-01-28 02:02:00,-17.0,-33.3,30.05,ENE,68,1.2,2.7,42,0.00,,,0.00,WUHU216TE923,2014-01-28 08:02:00,
2014-01-28 02:07:00,-17.5,-33.7,30.05,ESE,113,1.1,2.7,42,0.00,,,0.00,WUHU216TE923,2014-01-28 08:07:00,
2014-01-28 02:12:00,-17.5,-33.7,30.04,South,180,0.8,1.1,42,0.00,,,0.00,WUHU216TE923,2014-01-28 08:12:00,
2014-01-28 02:17:00,-18.0,-34.2,30.04,ESE,113,0.7,0.8,42,0.00,,,0.00,WUHU216TE923,2014-01-28 08:17:00,
2014-01-28 02:22:00,-18.0,-34.2,30.04,East,90,0.7,0.7,42,0.00,,,0.00,WUHU216TE923,2014-01-28 08:22:00,
2014-01-28 02:27:00,-18.0,-34.2,30.04,East,90,0.7,0.7,42,0.00,,,0.00,WUHU216TE923,2014-01-28 08:27:00,
2014-01-28 02:32:00,-18.6,-34.7,30.04,ESE,113,0.6,2.1,42,0.00,,,0.00,WUHU216TE923,2014-01-28 08:32:00,
2014-01-28 02:37:00,-18.6,-34.7,30.04,South,180,0.1,2.1,42,0.00,,,0.00,WUHU216TE923,2014-01-28 08:37:00,
2014-01-28 02:42:00,-18.6,-34.7,30.04,SE,135,0.2,0.2,42,0.00,,,0.00,WUHU216TE923,2014-01-28 08:42:00,
2014-01-28 02:47:00,-19.1,-35.2,30.04,SSE,158,0.1,2.3,42,0.00,,,0.00,WUHU216TE923,2014-01-28 08:47:00,
2014-01-28 02:52:00,-19.1,-35.2,30.04,West,270,0.1,2.3,42,0.00,,,0.00,WUHU216TE923,2014-01-28 08:52:00,
2014-01-28 02:57:00,-19.1,-35.2,30.04,South,180,0.1,0.1,42,0.00,,,0.00,WUHU216TE923,2014-01-28 08:57:00,
2014-01-28 03:02:00,-19.1,-35.2,30.04,SE,135,0.3,0.3,42,0.00,,,0.00,WUHU216TE923,2014-01-28 09:02:00,
2014-01-28 03:07:00,-18.6,-34.7,30.04,East,90,0.6,0.6,42,0.00,,,0.00,WUHU216TE923,2014-01-28 09:07:00,
2014-01-28 03:12:00,-19.1,-34.8,30.02,West,270,0.4,2.1,43,0.00,,,0.00,WUHU216TE923,2014-01-28 09:12:00,
2014-01-28 03:17:00,-19.1,-34.8,30.02,ESE,113,0.2,2.1,43,0.00,,,0.00,WUHU216TE923,2014-01-28 09:17:00,
2014-01-28 03:22:00,-19.1,-34.8,30.02,West,270,0.0,0.2,43,0.00,,,0.00,WUHU216TE923,2014-01-28 09:22:00,
2014-01-28 03:27:00,-19.1,-34.8,30.02,SE,135,0.0,0.0,43,0.00,,,0.00,WUHU216TE923,2014-01-28 09:27:00,
2014-01-28 03:32:00,-19.1,-34.8,30.02,WSW,248,0.0,0.0,43,0.00,,,0.00,WUHU216TE923,2014-01-28 09:32:00,
2014-01-28 03:37:00,-19.1,-34.8,30.02,SE,135,0.2,2.1,43,0.00,,,0.00,WUHU216TE923,2014-01-28 09:37:00,
2014-01-28 03:42:00,-19.1,-34.8,30.02,ENE,68,0.2,2.1,43,0.00,,,0.00,WUHU216TE923,2014-01-28 09:42:00,
2014-01-28 03:47:00,-19.1,-34.8,30.02,ESE,113,0.3,0.3,43,0.00,,,0.00,WUHU216TE923,2014-01-28 09:47:00,
2014-01-28 03:52:00,-19.8,-35.4,30.01,SE,135,0.6,3.2,43,0.00,,,0.00,WUHU216TE923,2014-01-28 09:52:00,
2014-01-28 03:57:00,-19.8,-35.4,30.01,SE,135,0.5,3.2,43,0.00,,,0.00,WUHU216TE923,2014-01-28 09:57:00,
2014-01-28 04:02:00,-19.8,-35.4,30.01,ESE,113,0.6,0.6,43,0.00,,,0.00,WUHU216TE923,2014-01-28 10:02:00,
2014-01-28 04:07:00,-19.8,-35.0,30.01,SE,135,0.7,3.4,44,0.00,,,0.00,WUHU216TE923,2014-01-28 10:07:00,
2014-01-28 04:12:00,-19.1,-34.4,30.02,South,180,1.5,4.4,44,0.00,,,0.00,WUHU216TE923,2014-01-28 10:12:00,
2014-01-28 04:17:00,-19.1,-34.0,30.02,ESE,113,2.7,4.4,45,0.00,,,0.00,WUHU216TE923,2014-01-28 10:17:00,
2014-01-28 04:22:00,-19.1,-34.0,30.02,SE,135,3.0,5.9,45,0.00,,,0.00,WUHU216TE923,2014-01-28 10:22:00,
2014-01-28 04:27:00,-19.1,-34.0,30.02,ESE,113,2.5,5.9,45,0.00,,,0.00,WUHU216TE923,2014-01-28 10:27:00,
2014-01-28 04:32:00,-19.1,-34.0,30.02,SE,135,2.6,5.7,45,0.00,,,0.00,WUHU216TE923,2014-01-28 10:32:00,
2014-01-28 04:37:00,-19.1,-34.0,30.02,ESE,113,1.8,3.6,45,0.00,,,0.00,WUHU216TE923,2014-01-28 10:37:00,
2014-01-28 04:42:00,-19.1,-33.6,30.02,SW,225,1.1,3.6,46,0.00,,,0.00,WUHU216TE923,2014-01-28 10:42:00,
2014-01-28 04:47:00,-18.6,-33.1,30.02,ENE,68,1.6,1.6,46,0.00,,,0.00,WUHU216TE923,2014-01-28 10:47:00,
2014-01-28 04:52:00,-18.6,-33.1,30.02,East,90,1.6,4.4,46,0.00,,,0.00,WUHU216TE923,2014-01-28 10:52:00,
2014-01-28 04:57:00,-18.6,-33.1,30.02,ENE,68,1.7,4.4,46,0.00,,,0.00,WUHU216TE923,2014-01-28 10:57:00,
2014-01-28 05:02:00,-18.6,-33.1,30.02,ENE,68,2.4,5.9,46,0.00,,,0.00,WUHU216TE923,2014-01-28 11:02:00,
2014-01-28 05:07:00,-18.6,-33.1,30.02,ESE,113,2.4,5.9,46,0.00,,,0.00,WUHU216TE923,2014-01-28 11:07:00,
2014-01-28 05:12:00,-19.1,-33.6,30.03,NE,45,2.7,5.0,46,0.00,,,0.00,WUHU216TE923,2014-01-28 11:12:00,
2014-01-28 05:17:00,-19.1,-33.6,30.03,ESE,113,2.7,5.0,46,0.00,,,0.00,WUHU216TE923,2014-01-28 11:17:00,
2014-01-28 05:22:00,-18.6,-32.7,30.03,ENE,68,2.6,3.8,47,0.00,,,0.00,WUHU216TE923,2014-01-28 11:22:00,
2014-01-28 05:27:00,-18.6,-32.7,30.03,ESE,113,2.9,5.9,47,0.00,,,0.00,WUHU216TE923,2014-01-28 11:27:00,
2014-01-28 05:32:00,-18.6,-32.7,30.05,SE,135,2.7,5.9,47,0.00,,,0.00,WUHU216TE923,2014-01-28 11:32:00,
2014-01-28 05:37:00,-18.6,-32.7,30.05,East,90,2.3,2.9,47,0.00,,,0.00,WUHU216TE923,2014-01-28 11:37:00,
2014-01-28 05:42:00,-18.6,-32.7,30.05,NE,45,2.1,4.8,47,0.00,,,0.00,WUHU216TE923,2014-01-28 11:42:00,
2014-01-28 05:47:00,-18.6,-32.7,30.05,ESE,113,2.1,4.8,47,0.00,,,0.00,WUHU216TE923,2014-01-28 11:47:00,
2014-01-28 05:52:00,-19.1,-33.2,30.03,ESE,113,2.1,3.6,47,0.00,,,0.00,WUHU216TE923,2014-01-28 11:52:00,
2014-01-28 05:57:00,-19.1,-33.2,30.03,ENE,68,2.1,3.6,47,0.00,,,0.00,WUHU216TE923,2014-01-28 11:57:00,
2014-01-28 06:02:00,-19.1,-33.2,30.03,SE,135,1.9,6.5,47,0.00,,,0.00,WUHU216TE923,2014-01-28 12:02:00,
2014-01-28 06:07:00,-19.1,-33.2,30.03,East,90,1.7,6.7,47,0.00,,,0.00,WUHU216TE923,2014-01-28 12:07:00,
2014-01-28 06:12:00,-19.1,-33.2,30.01,West,270,1.9,6.7,47,0.00,,,0.00,WUHU216TE923,2014-01-28 12:12:00,
2014-01-28 06:18:00,-19.8,-33.8,30.01,West,270,1.5,4.4,47,0.00,,,0.00,WUHU216TE923,2014-01-28 12:18:00,
2014-01-28 06:23:00,-19.8,-33.8,30.01,North,0,1.2,3.8,47,0.00,,,0.00,WUHU216TE923,2014-01-28 12:23:00,
2014-01-28 06:28:00,-19.8,-33.8,30.01,ENE,68,1.0,1.2,47,0.00,,,0.00,WUHU216TE923,2014-01-28 12:28:00,
2014-01-28 06:33:00,-19.8,-33.8,29.99,NE,45,1.1,6.5,47,0.00,,,0.00,WUHU216TE923,2014-01-28 12:33:00,
2014-01-28 06:38:00,-19.8,-33.8,29.99,East,90,0.9,6.5,47,0.00,,,0.00,WUHU216TE923,2014-01-28 12:38:00,
2014-01-28 06:43:00,-19.8,-33.8,29.99,West,270,0.7,0.9,47,0.00,,,0.00,WUHU216TE923,2014-01-28 12:43:00,
2014-01-28 06:48:00,-19.8,-33.8,29.99,East,90,0.5,3.0,47,0.00,,,0.00,WUHU216TE923,2014-01-28 12:48:00,
2014-01-28 06:53:00,-19.8,-33.8,29.98,NNE,23,0.8,3.0,47,0.00,,,0.00,WUHU216TE923,2014-01-28 12:53:00,
2014-01-28 06:58:00,-19.1,-33.2,29.98,East,90,1.9,4.9,47,0.00,,,0.00,WUHU216TE923,2014-01-28 12:58:00,
2014-01-28 07:03:00,-19.8,-33.8,29.98,ENE,68,1.7,4.9,47,0.00,,,0.00,WUHU216TE923,2014-01-28 13:03:00,
2014-01-28 07:08:00,-19.8,-33.8,29.98,SE,135,1.3,2.1,47,0.00,,,0.00,WUHU216TE923,2014-01-28 13:08:00,
2014-01-28 07:13:00,-19.8,-33.8,29.97,ESE,113,1.3,2.3,47,0.00,,,0.00,WUHU216TE923,2014-01-28 13:13:00,
2014-01-28 07:18:00,-19.8,-33.8,29.97,ENE,68,1.3,2.3,47,0.00,,,0.00,WUHU216TE923,2014-01-28 13:18:00,
2014-01-28 07:23:00,-19.8,-33.8,29.97,West,270,0.7,1.3,47,0.00,,,0.00,WUHU216TE923,2014-01-28 13:23:00,
2014-01-28 07:28:00,-19.1,-33.2,29.97,ESE,113,0.5,0.7,47,0.00,,,0.00,WUHU216TE923,2014-01-28 13:28:00,
2014-01-28 07:33:00,-19.1,-32.8,29.95,ESE,113,0.7,0.7,48,0.00,,,0.00,WUHU216TE923,2014-01-28 13:33:00,
2014-01-28 07:38:00,-19.1,-32.8,29.95,NE,45,1.1,2.7,48,0.00,,,0.00,WUHU216TE923,2014-01-28 13:38:00,
2014-01-28 07:43:00,-18.6,-32.3,29.95,ESE,113,1.2,4.6,48,0.00,,,0.00,WUHU216TE923,2014-01-28 13:43:00,
2014-01-28 07:48:00,-18.6,-32.3,29.95,SE,135,0.9,4.6,48,0.00,,,0.00,WUHU216TE923,2014-01-28 13:48:00,
2014-01-28 07:53:00,-18.6,-32.3,29.94,ESE,113,1.1,2.5,48,0.00,,,0.00,WUHU216TE923,2014-01-28 13:53:00,
2014-01-28 07:58:00,-18.0,-31.8,29.94,ESE,113,1.4,2.5,48,0.00,,,0.00,WUHU216TE923,2014-01-28 13:58:00,
2014-01-28 08:03:00,-17.5,-31.3,29.94,ENE,68,1.8,5.2,48,0.00,,,0.00,WUHU216TE923,2014-01-28 14:03:00,
2014-01-28 08:08:00,-16.2,-29.7,29.94,ENE,68,0.9,5.2,49,0.00,,,0.00,WUHU216TE923,2014-01-28 14:08:00,
2014-01-28 08:13:00,-16.2,-29.7,29.94,West,270,0.7,1.6,49,0.00,,,0.00,WUHU216TE923,2014-01-28 14:13:00,
2014-01-28 08:18:00,-15.2,-29.2,29.94,West,270,0.4,1.6,48,0.00,,,0.00,WUHU216TE923,2014-01-28 14:18:00,
2014-01-28 08:23:00,-15.2,-29.2,29.94,East,90,0.7,1.5,48,0.00,,,0.00,WUHU216TE923,2014-01-28 14:23:00,
2014-01-28 08:28:00,-15.2,-29.6,29.94,SE,135,1.0,1.2,47,0.00,,,0.00,WUHU216TE923,2014-01-28 14:28:00,
2014-01-28 08:33:00,-15.2,-30.0,29.94,ESE,113,1.1,1.2,46,0.00,,,0.00,WUHU216TE923,2014-01-28 14:33:00,
2014-01-28 08:38:00,-15.2,-30.4,29.94,ENE,68,1.9,1.9,45,0.00,,,0.00,WUHU216TE923,2014-01-28 14:38:00,
2014-01-28 08:43:00,-14.6,-30.2,29.94,ENE,68,2.8,5.1,44,0.00,,,0.00,WUHU216TE923,2014-01-28 14:43:00,
2014-01-28 08:48:00,-14.1,-30.2,29.94,SE,135,3.6,5.1,43,0.00,,,0.00,WUHU216TE923,2014-01-28 14:48:00,
2014-01-28 08:53:00,-13.0,-29.2,29.94,ENE,68,3.3,5.2,43,0.00,,,0.00,WUHU216TE923,2014-01-28 14:53:00,
2014-01-28 08:58:00,-13.0,-29.6,29.94,SE,135,2.0,5.2,42,0.00,,,0.00,WUHU216TE923,2014-01-28 14:58:00,
2014-01-28 09:03:00,-13.0,-29.6,30.05,ENE,68,1.4,2.0,42,0.00,,,0.00,WUHU216TE923,2014-01-28 15:03:00,
2014-01-28 09:08:00,-12.5,-29.6,30.05,SE,135,1.7,3.1,41,0.00,,,0.00,WUHU216TE923,2014-01-28 15:08:00,
2014-01-28 09:13:00,-12.1,-29.3,30.08,ESE,113,1.9,3.1,41,0.00,,,0.00,WUHU216TE923,2014-01-28 15:13:00,
2014-01-28 09:18:00,-12.1,-30.2,30.08,ESE,113,2.1,3.1,39,0.00,,,0.00,WUHU216TE923,2014-01-28 15:18:00,
2014-01-28 09:23:00,-11.2,-29.4,30.08,NE,45,2.3,3.7,39,0.00,,,0.00,WUHU216TE923,2014-01-28 15:23:00,
2014-01-28 09:28:00,-10.7,-29.4,30.08,ENE,68,1.8,3.7,38,0.00,,,0.00,WUHU216TE923,2014-01-28 15:28:00,
2014-01-28 09:33:00,-9.8,-29.1,30.09,SE,135,1.5,1.9,37,0.00,,,0.00,WUHU216TE923,2014-01-28 15:33:00,
2014-01-28 09:38:00,-9.8,-29.1,30.09,South,180,1.8,1.8,37,0.00,,,0.00,WUHU216TE923,2014-01-28 15:38:00,
2014-01-28 09:43:00,-8.0,-27.5,30.09,NNW,338,1.5,1.8,37,0.00,,,0.00,WUHU216TE923,2014-01-28 15:43:00,
2014-01-28 09:48:00,-8.9,-29.3,30.09,ENE,68,1.4,2.9,35,0.00,,,0.00,WUHU216TE923,2014-01-28 15:48:00,
2014-01-28 09:53:00,-8.0,-29.0,30.07,ENE,68,2.1,2.9,34,0.00,,,0.00,WUHU216TE923,2014-01-28 15:53:00,
2014-01-28 09:58:00,-7.1,-28.2,30.07,SSE,158,1.9,3.1,34,0.00,,,0.00,WUHU216TE923,2014-01-28 15:58:00,
2014-01-28 10:03:00,-7.4,-29.0,30.07,SE,135,1.8,4.0,33,0.00,,,0.00,WUHU216TE923,2014-01-28 16:03:00,
2014-01-28 10:08:00,-5.6,-27.4,30.07,ESE,113,2.0,4.0,33,0.00,,,0.00,WUHU216TE923,2014-01-28 16:08:00,
2014-01-28 10:13:00,-5.3,-27.2,30.06,SE,135,1.6,2.5,33,0.00,,,0.00,WUHU216TE923,2014-01-28 16:13:00,
2014-01-28 10:18:00,-6.2,-29.1,30.06,South,180,1.8,3.2,31,0.00,,,0.00,WUHU216TE923,2014-01-28 16:18:00,
2014-01-28 10:23:00,-5.3,-28.3,30.06,ENE,68,2.0,4.3,31,0.00,,,0.00,WUHU216TE923,2014-01-28 16:23:00,
2014-01-28 10:28:00,-4.4,-27.5,30.06,NNE,23,1.5,4.3,31,0.00,,,0.00,WUHU216TE923,2014-01-28 16:28:00,
2014-01-28 10:33:00,-5.3,-28.3,30.07,WSW,248,1.5,3.1,31,0.00,,,0.00,WUHU216TE923,2014-01-28 16:33:00,
2014-01-28 10:38:00,-4.4,-27.5,30.07,ESE,113,2.0,3.1,31,0.00,,,0.00,WUHU216TE923,2014-01-28 16:38:00,
2014-01-28 10:43:00,-3.8,-27.6,30.07,West,270,2.2,3.7,30,0.00,,,0.00,WUHU216TE923,2014-01-28 16:43:00,
2014-01-28 10:48:00,-2.7,-26.6,30.07,SE,135,2.1,4.2,30,0.00,,,0.00,WUHU216TE923,2014-01-28 16:48:00,
2014-01-28 10:53:00,-2.7,-26.6,30.06,NNW,338,2.0,4.2,30,0.00,,,0.00,WUHU216TE923,2014-01-28 16:53:00,
2014-01-28 10:58:00,-1.8,-25.8,30.06,ESE,113,2.1,4.4,30,0.00,,,0.00,WUHU216TE923,2014-01-28 16:58:00,
2014-01-28 11:03:00,-2.4,-26.3,30.06,SSW,203,2.3,4.4,30,0.00,,,0.00,WUHU216TE923,2014-01-28 17:03:00,
2014-01-28 11:08:00,-1.3,-25.4,30.06,ESE,113,2.3,3.7,30,0.00,,,0.00,WUHU216TE923,2014-01-28 17:08:00,
2014-01-28 11:13:00,0.1,-24.1,30.05,NNW,338,1.8,2.3,30,0.00,,,0.00,WUHU216TE923,2014-01-28 17:13:00,
2014-01-28 11:18:00,-0.9,-26.3,30.05,NW,315,1.7,2.1,28,0.00,,,0.00,WUHU216TE923,2014-01-28 17:18:00,
2014-01-28 11:23:00,-0.4,-25.8,30.05,North,0,2.0,2.8,28,0.00,,,0.00,WUHU216TE923,2014-01-28 17:23:00,
2014-01-28 11:28:00,0.1,-25.4,30.05,SSE,158,1.8,2.8,28,0.00,,,0.00,WUHU216TE923,2014-01-28 17:28:00,
2014-01-28 11:33:00,-0.9,-26.3,30.04,SE,135,2.0,4.7,28,0.00,,,0.00,WUHU216TE923,2014-01-28 17:33:00,
2014-01-28 11:38:00,-0.4,-25.8,30.04,ENE,68,2.4,5.8,28,0.00,,,0.00,WUHU216TE923,2014-01-28 17:38:00,
2014-01-28 11:43:00,-1.5,-28.8,30.04,ENE,68,3.0,5.8,25,0.00,,,0.00,WUHU216TE923,2014-01-28 17:43:00,
2014-01-28 11:48:00,0.1,-27.4,30.04,ENE,68,3.0,3.2,25,0.00,,,0.00,WUHU216TE923,2014-01-28 17:48:00,
2014-01-28 11:53:00,-0.9,-28.3,30.06,NE,45,3.2,3.2,25,0.00,,,0.00,WUHU216TE923,2014-01-28 17:53:00,
2014-01-28 11:58:00,0.5,-27.1,30.06,SSE,158,3.1,4.7,25,0.00,,,0.00,WUHU216TE923,2014-01-28 17:58:00,
2014-01-28 12:03:00,0.5,-27.1,30.06,ESE,113,2.5,4.7,25,0.00,,,0.00,WUHU216TE923,2014-01-28 18:03:00,
2014-01-28 12:08:00,0.5,-27.1,30.06,SE,135,2.7,3.0,25,0.00,,,0.00,WUHU216TE923,2014-01-28 18:08:00,
2014-01-28 12:13:00,0.5,-27.1,30.04,SE,135,2.9,6.1,25,0.00,,,0.00,WUHU216TE923,2014-01-28 18:13:00,
2014-01-28 12:18:00,1.0,-26.7,30.04,ENE,68,2.9,6.1,25,0.00,,,0.00,WUHU216TE923,2014-01-28 18:18:00,
2014-01-28 12:23:00,3.6,-24.4,30.04,East,90,2.3,4.8,25,0.00,,,0.00,WUHU216TE923,2014-01-28 18:23:00,
2014-01-28 12:28:00,1.0,-26.7,30.04,ENE,68,2.0,4.8,25,0.00,,,0.00,WUHU216TE923,2014-01-28 18:28:00,
2014-01-28 12:33:00,1.6,-26.2,30.00,NE,45,2.3,2.3,25,0.00,,,0.00,WUHU216TE923,2014-01-28 18:33:00,
2014-01-28 12:38:00,1.0,-26.7,30.00,ESE,113,2.3,5.6,25,0.00,,,0.00,WUHU216TE923,2014-01-28 18:38:00,
2014-01-28 12:43:00,1.0,-26.7,30.00,ESE,113,2.7,5.7,25,0.00,,,0.00,WUHU216TE923,2014-01-28 18:43:00,
2014-01-28 12:48:00,1.0,-29.0,30.00,SE,135,3.1,5.7,22,0.00,,,0.00,WUHU216TE923,2014-01-28 18:48:00,
2014-01-28 12:53:00,0.5,-29.4,29.97,ESE,113,3.4,6.8,22,0.00,,,0.00,WUHU216TE923,2014-01-28 18:53:00,
2014-01-28 12:58:00,1.6,-28.4,29.97,NE,45,3.1,6.8,22,0.00,,,0.00,WUHU216TE923,2014-01-28 18:58:00,
2014-01-28 13:03:00,1.6,-28.4,29.97,NW,315,3.1,4.4,22,0.00,,,0.00,WUHU216TE923,2014-01-28 19:03:00,
2014-01-28 13:08:00,2.1,-28.0,29.97,ENE,68,3.6,6.0,22,0.00,,,0.00,WUHU216TE923,2014-01-28 19:08:00,
2014-01-28 13:13:00,1.0,-29.0,29.95,ESE,113,3.6,6.0,22,0.00,,,0.00,WUHU216TE923,2014-01-28 19:13:00,
2014-01-28 13:18:00,0.5,-29.4,29.95,SE,135,3.5,8.4,22,0.00,,,0.00,WUHU216TE923,2014-01-28 19:18:00,
2014-01-28 13:23:00,1.6,-28.4,29.95,ENE,68,3.5,8.4,22,0.00,,,0.00,WUHU216TE923,2014-01-28 19:23:00,
2014-01-28 13:28:00,2.1,-28.0,29.95,ESE,113,3.1,5.5,22,0.00,,,0.00,WUHU216TE923,2014-01-28 19:28:00,
2014-01-28 13:33:00,3.0,-27.2,29.94,SE,135,2.9,5.0,22,0.00,,,0.00,WUHU216TE923,2014-01-28 19:33:00,
2014-01-28 13:38:00,1.0,-29.0,29.94,ENE,68,3.2,4.4,22,0.00,,,0.00,WUHU216TE923,2014-01-28 19:38:00,
2014-01-28 13:43:00,1.0,-29.0,29.94,ENE,68,2.9,4.4,22,0.00,,,0.00,WUHU216TE923,2014-01-28 19:43:00,
2014-01-28 13:48:00,1.0,-29.0,29.94,ENE,68,2.9,3.1,22,0.00,,,0.00,WUHU216TE923,2014-01-28 19:48:00,
2014-01-28 13:53:00,2.5,-27.7,29.93,SSE,158,3.0,5.2,22,0.00,,,0.00,WUHU216TE923,2014-01-28 19:53:00,
2014-01-28 13:58:00,1.6,-28.4,29.93,SE,135,2.7,5.4,22,0.00,,,0.00,WUHU216TE923,2014-01-28 19:58:00,
2014-01-28 14:03:00,1.0,-29.0,29.93,East,90,2.8,5.4,22,0.00,,,0.00,WUHU216TE923,2014-01-28 20:03:00,
2014-01-28 14:08:00,0.7,-29.2,29.93,ESE,113,3.5,5.2,22,0.00,,,0.00,WUHU216TE923,2014-01-28 20:08:00,
2014-01-28 14:13:00,0.7,-26.9,29.93,SE,135,3.8,4.2,25,0.00,,,0.00,WUHU216TE923,2014-01-28 20:13:00,
2014-01-28 14:18:00,0.1,-27.4,29.93,NE,45,3.9,3.9,25,0.00,,,0.00,WUHU216TE923,2014-01-28 20:18:00,
2014-01-28 14:23:00,0.1,-27.4,29.93,ESE,113,3.9,7.0,25,0.00,,,0.00,WUHU216TE923,2014-01-28 20:23:00,
2014-01-28 14:28:00,0.7,-26.9,29.93,WSW,248,3.8,7.0,25,0.00,,,0.00,WUHU216TE923,2014-01-28 20:28:00,
2014-01-28 14:33:00,0.7,-26.9,29.93,SE,135,4.1,4.7,25,0.00,,,0.00,WUHU216TE923,2014-01-28 20:33:00,
2014-01-28 14:38:00,0.1,-27.4,29.93,ENE,68,3.7,5.3,25,0.00,,,0.00,WUHU216TE923,2014-01-28 20:38:00,
2014-01-28 14:43:00,1.0,-26.7,29.93,SSE,158,3.3,7.5,25,0.00,,,0.00,WUHU216TE923,2014-01-28 20:43:00,
2014-01-28 14:48:00,0.7,-26.9,29.93,ESE,113,3.5,7.5,25,0.00,,,0.00,WUHU216TE923,2014-01-28 20:48:00,
2014-01-28 14:53:00,1.0,-26.7,29.91,SSW,203,3.5,5.6,25,0.00,,,0.00,WUHU216TE923,2014-01-28 20:53:00,
2014-01-28 14:58:00,0.7,-26.9,29.91,West,270,2.8,4.4,25,0.00,,,0.00,WUHU216TE923,2014-01-28 20:58:00,
2014-01-28 15:03:00,0.7,-26.9,29.91,SE,135,3.2,6.1,25,0.00,,,0.00,WUHU216TE923,2014-01-28 21:03:00,
2014-01-28 15:08:00,0.1,-27.4,29.91,SSE,158,3.5,6.1,25,0.00,,,0.00,WUHU216TE923,2014-01-28 21:08:00,
2014-01-28 15:13:00,0.7,-26.9,29.92,ESE,113,3.3,3.5,25,0.00,,,0.00,WUHU216TE923,2014-01-28 21:13:00,
2014-01-28 15:18:00,0.7,-26.9,29.92,South,180,2.8,3.3,25,0.00,,,0.00,WUHU216TE923,2014-01-28 21:18:00,
2014-01-28 15:23:00,0.7,-26.9,29.92,North,0,2.9,3.1,25,0.00,,,0.00,WUHU216TE923,2014-01-28 21:23:00,
2014-01-28 15:28:00,-0.4,-27.9,29.92,NE,45,2.9,3.1,25,0.00,,,0.00,WUHU216TE923,2014-01-28 21:28:00,
2014-01-28 15:33:00,0.1,-27.4,29.91,East,90,3.2,5.0,25,0.00,,,0.00,WUHU216TE923,2014-01-28 21:33:00,
2014-01-28 15:38:00,-0.4,-27.9,29.91,ESE,113,3.2,5.0,25,0.00,,,0.00,WUHU216TE923,2014-01-28 21:38:00,
2014-01-28 15:43:00,-0.8,-26.2,29.91,NNE,23,3.0,4.5,28,0.00,,,0.00,WUHU216TE923,2014-01-28 21:43:00,
2014-01-28 15:48:00,-0.8,-26.2,29.91,South,180,2.3,4.5,28,0.00,,,0.00,WUHU216TE923,2014-01-28 21:48:00,
2014-01-28 15:53:00,-0.8,-26.2,29.91,NE,45,2.4,5.6,28,0.00,,,0.00,WUHU216TE923,2014-01-28 21:53:00,
2014-01-28 15:58:00,-0.8,-26.2,29.91,ENE,68,2.7,5.6,28,0.00,,,0.00,WUHU216TE923,2014-01-28 21:58:00,
2014-01-28 16:03:00,-0.8,-26.2,29.91,WSW,248,3.0,3.7,28,0.00,,,0.00,WUHU216TE923,2014-01-28 22:03:00,
2014-01-28 16:08:00,-1.3,-26.6,29.91,East,90,3.0,3.7,28,0.00,,,0.00,WUHU216TE923,2014-01-28 22:08:00,
2014-01-28 16:13:00,-1.3,-26.6,29.91,NE,45,2.9,3.0,28,0.00,,,0.00,WUHU216TE923,2014-01-28 22:13:00,
2014-01-28 16:18:00,-1.3,-26.6,29.91,SW,225,2.9,3.9,28,0.00,,,0.00,WUHU216TE923,2014-01-28 22:18:00,
2014-01-28 16:23:00,-1.3,-26.6,29.91,SE,135,2.9,3.9,28,0.00,,,0.00,WUHU216TE923,2014-01-28 22:23:00,
2014-01-28 16:28:00,-1.3,-26.6,29.91,NW,315,2.4,3.4,28,0.00,,,0.00,WUHU216TE923,2014-01-28 22:28:00,
2014-01-28 16:33:00,-1.8,-25.8,29.91,NNW,338,2.8,8.6,30,0.00,,,0.00,WUHU216TE923,2014-01-28 22:33:00,
2014-01-28 16:38:00,-1.8,-25.8,29.91,NNW,338,3.0,8.6,30,0.00,,,0.00,WUHU216TE923,2014-01-28 22:38:00,
2014-01-28 16:43:00,-2.2,-26.2,29.91,SE,135,3.5,4.1,30,0.00,,,0.00,WUHU216TE923,2014-01-28 22:43:00,
2014-01-28 16:48:00,-2.2,-26.2,29.91,SE,135,3.6,4.3,30,0.00,,,0.00,WUHU216TE923,2014-01-28 22:48:00,
2014-01-28 16:53:00,-2.2,-26.2,29.93,South,180,3.4,5.3,30,0.00,,,0.00,WUHU216TE923,2014-01-28 22:53:00,
2014-01-28 16:58:00,-2.7,-26.6,29.93,NE,45,3.5,5.3,30,0.00,,,0.00,WUHU216TE923,2014-01-28 22:58:00,
2014-01-28 17:03:00,-3.3,-27.1,29.93,East,90,3.3,4.8,30,0.00,,,0.00,WUHU216TE923,2014-01-28 23:03:00,
2014-01-28 17:08:00,-3.3,-27.1,29.93,ESE,113,2.5,4.8,30,0.00,,,0.00,WUHU216TE923,2014-01-28 23:08:00,
2014-01-28 17:13:00,-3.3,-26.5,29.92,ENE,68,2.8,4.9,31,0.00,,,0.00,WUHU216TE923,2014-01-28 23:13:00,
2014-01-28 17:18:00,-3.3,-26.5,29.92,West,270,3.1,4.9,31,0.00,,,0.00,WUHU216TE923,2014-01-28 23:18:00,
2014-01-28 17:23:00,-3.6,-26.8,29.92,ESE,113,2.8,4.4,31,0.00,,,0.00,WUHU216TE923,2014-01-28 23:23:00,
2014-01-28 17:28:00,-3.6,-26.8,29.92,East,90,2.8,4.4,31,0.00,,,0.00,WUHU216TE923,2014-01-28 23:28:00,
2014-01-28 17:33:00,-3.6,-26.8,29.90,WNW,293,3.4,3.4,31,0.00,,,0.00,WUHU216TE923,2014-01-28 23:33:00,
2014-01-28 17:38:00,-3.6,-26.8,29.90,WSW,248,2.7,3.4,31,0.00,,,0.00,WUHU216TE923,2014-01-28 23:38:00,
2014-01-28 17:43:00,-4.2,-27.3,29.90,ESE,113,2.7,4.3,31,0.00,,,0.00,WUHU216TE923,2014-01-28 23:43:00,
2014-01-28 17:48:00,-4.2,-26.7,29.90,SE,135,2.8,4.3,32,0.00,,,0.00,WUHU216TE923,2014-01-28 23:48:00,
2014-01-28 17:53:00,-4.2,-26.7,29.91,SSE,158,2.5,4.8,32,0.00,,,0.00,WUHU216TE923,2014-01-28 23:53:00,
2014-01-28 17:58:00,-4.2,-26.2,29.91,West,270,2.4,4.8,33,0.00,,,0.00,WUHU216TE923,2014-01-28 23:58:00,
2014-01-28 18:03:00,-4.2,-26.2,29.91,NNE,23,2.7,4.8,33,0.00,,,0.00,WUHU216TE923,2014-01-29 00:03:00,
2014-01-28 18:08:00,-4.2,-26.2,29.91,NW,315,2.4,4.8,33,0.00,,,0.00,WUHU216TE923,2014-01-29 00:08:00,
2014-01-28 18:13:00,-4.2,-26.2,29.91,NW,315,2.8,3.8,33,0.00,,,0.00,WUHU216TE923,2014-01-29 00:13:00,
2014-01-28 18:18:00,-4.2,-25.6,29.91,ENE,68,2.7,7.6,34,0.00,,,0.00,WUHU216TE923,2014-01-29 00:18:00,
2014-01-28 18:23:00,-4.2,-25.6,29.91,West,270,2.6,7.6,34,0.00,,,0.00,WUHU216TE923,2014-01-29 00:23:00,
2014-01-28 18:28:00,-4.2,-25.6,29.91,SW,225,2.5,4.4,34,0.00,,,0.00,WUHU216TE923,2014-01-29 00:28:00,
2014-01-28 18:29:00,-4.2,-25.6,29.91,SW,225,2.5,4.4,34,0.00,,,0.00,WUHU216TE923,2014-01-29 00:29:00,
2014-01-28 18:34:00,-4.2,-25.1,29.90,WSW,248,2.3,4.4,35,0.00,,,0.00,WUHU216TE923,2014-01-29 00:34:00,
2014-01-28 18:39:00,-4.2,-25.1,29.90,NNE,23,3.0,4.2,35,0.00,,,0.00,WUHU216TE923,2014-01-29 00:39:00,
2014-01-28 18:44:00,-4.2,-24.6,29.90,WSW,248,2.5,3.5,36,0.00,,,0.00,WUHU216TE923,2014-01-29 00:44:00,
2014-01-28 18:49:00,-4.2,-24.6,29.90,ESE,113,2.1,4.8,36,0.00,,,0.00,WUHU216TE923,2014-01-29 00:49:00,
2014-01-28 18:54:00,-4.2,-24.6,29.90,NW,315,2.4,6.7,36,0.00,,,0.00,WUHU216TE923,2014-01-29 00:54:00,
2014-01-28 18:59:00,-4.7,-25.0,29.90,South,180,2.3,6.7,36,0.00,,,0.00,WUHU216TE923,2014-01-29 00:59:00,
2014-01-28 19:04:00,-4.7,-24.5,29.90,ENE,68,2.0,2.3,37,0.00,,,0.00,WUHU216TE923,2014-01-29 01:04:00,
2014-01-28 19:09:00,-4.7,-24.5,29.90,SW,225,1.6,2.0,37,0.00,,,0.00,WUHU216TE923,2014-01-29 01:09:00,
2014-01-28 19:14:00,-4.7,-24.5,29.90,South,180,1.6,2.7,37,0.00,,,0.00,WUHU216TE923,2014-01-29 01:14:00,
2014-01-28 19:19:00,-4.7,-24.5,29.90,ESE,113,1.7,4.4,37,0.00,,,0.00,WUHU216TE923,2014-01-29 01:19:00,
2014-01-28 19:24:00,-4.7,-24.0,29.90,WNW,293,2.2,4.4,38,0.00,,,0.00,WUHU216TE923,2014-01-29 01:24:00,
2014-01-28 19:29:00,-4.7,-24.0,29.90,SE,135,2.5,3.3,38,0.00,,,0.00,WUHU216TE923,2014-01-29 01:29:00,
2014-01-28 19:34:00,-5.1,-24.4,29.89,East,90,2.1,2.7,38,0.00,,,0.00,WUHU216TE923,2014-01-29 01:34:00,
2014-01-28 19:39:00,-4.7,-24.0,29.89,South,180,1.5,4.2,38,0.00,,,0.00,WUHU216TE923,2014-01-29 01:39:00,
2014-01-28 19:44:00,-5.1,-24.4,29.89,SSE,158,1.6,4.2,38,0.00,,,0.00,WUHU216TE923,2014-01-29 01:44:00,
2014-01-28 19:49:00,-4.7,-23.5,29.89,ESE,113,1.8,5.3,39,0.00,,,0.00,WUHU216TE923,2014-01-29 01:49:00,
2014-01-28 19:54:00,-5.1,-23.9,29.89,NNE,23,1.6,5.3,39,0.00,,,0.00,WUHU216TE923,2014-01-29 01:54:00,
2014-01-28 19:59:00,-5.1,-23.9,29.89,SE,135,1.5,7.4,39,0.00,,,0.00,WUHU216TE923,2014-01-29 01:59:00,
2014-01-28 20:04:00,-5.1,-23.9,29.89,NNE,23,1.2,7.4,39,0.00,,,0.00,WUHU216TE923,2014-01-29 02:04:00,
2014-01-28 20:09:00,-5.1,-23.4,29.89,South,180,1.6,3.2,40,0.00,,,0.00,WUHU216TE923,2014-01-29 02:09:00,
2014-01-28 20:14:00,-5.1,-23.4,29.88,ESE,113,1.7,3.2,40,0.00,,,0.00,WUHU216TE923,2014-01-29 02:14:00,
2014-01-28 20:19:00,-5.1,-23.4,29.88,NE,45,1.9,3.1,40,0.00,,,0.00,WUHU216TE923,2014-01-29 02:19:00,
2014-01-28 20:24:00,-5.1,-23.4,29.88,North,0,1.7,2.9,40,0.00,,,0.00,WUHU216TE923,2014-01-29 02:24:00,
2014-01-28 20:29:00,-5.1,-23.4,29.88,NW,315,1.2,2.9,40,0.00,,,0.00,WUHU216TE923,2014-01-29 02:29:00,
2014-01-28 20:34:00,-5.6,-23.8,29.88,NE,45,0.9,1.9,40,0.00,,,0.00,WUHU216TE923,2014-01-29 02:34:00,
2014-01-28 20:39:00,-5.1,-23.4,29.88,ENE,68,1.1,1.9,40,0.00,,,0.00,WUHU216TE923,2014-01-29 02:39:00,
2014-01-28 20:44:00,-5.6,-23.8,29.88,ESE,113,1.2,3.1,40,0.00,,,0.00,WUHU216TE923,2014-01-29 02:44:00,
2014-01-28 20:49:00,-5.1,-22.9,29.88,ESE,113,1.2,3.1,41,0.00,,,0.00,WUHU216TE923,2014-01-29 02:49:00,
2014-01-28 20:54:00,-5.1,-22.9,29.87,SE,135,1.7,2.5,41,0.00,,,0.00,WUHU216TE923,2014-01-29 02:54:00,
2014-01-28 20:59:00,-5.1,-22.4,29.87,East,90,2.1,2.5,42,0.00,,,0.00,WUHU216TE923,2014-01-29 02:59:00,
2014-01-28 21:04:00,-5.1,-22.4,29.87,South,180,1.9,2.1,42,0.00,,,0.00,WUHU216TE923,2014-01-29 03:04:00,
2014-01-28 21:09:00,-5.1,-22.4,29.87,East,90,1.8,2.3,42,0.00,,,0.00,WUHU216TE923,2014-01-29 03:09:00,
2014-01-28 21:14:00,-5.6,-22.9,29.88,NNE,23,1.7,2.3,42,0.00,,,0.00,WUHU216TE923,2014-01-29 03:14:00,
2014-01-28 21:19:00,-5.1,-22.4,29.88,NNE,23,1.5,2.5,42,0.00,,,0.00,WUHU216TE923,2014-01-29 03:19:00,
2014-01-28 21:24:00,-5.6,-22.9,29.88,NW,315,1.3,3.6,42,0.00,,,0.00,WUHU216TE923,2014-01-29 03:24:00,
2014-01-28 21:29:00,-5.1,-22.4,29.88,SE,135,2.0,3.6,42,0.00,,,0.00,WUHU216TE923,2014-01-29 03:29:00,
2014-01-28 21:34:00,-5.1,-22.4,29.87,SE,135,2.4,3.6,42,0.00,,,0.00,WUHU216TE923,2014-01-29 03:34:00,
2014-01-28 21:39:00,-5.1,-22.0,29.87,SSE,158,2.5,3.6,43,0.00,,,0.00,WUHU216TE923,2014-01-29 03:39:00,
2014-01-28 21:44:00,-5.1,-22.0,29.87,SSE,158,2.2,3.5,43,0.00,,,0.00,WUHU216TE923,2014-01-29 03:44:00,
2014-01-28 21:49:00,-5.1,-22.0,29.87,SE,135,2.0,2.3,43,0.00,,,0.00,WUHU216TE923,2014-01-29 03:49:00,
2014-01-28 21:54:00,-5.6,-22.4,29.87,ENE,68,2.0,2.0,43,0.00,,,0.00,WUHU216TE923,2014-01-29 03:54:00,
2014-01-28 21:59:00,-6.0,-23.3,29.87,SSE,158,1.3,2.0,42,0.00,,,0.00,WUHU216TE923,2014-01-29 03:59:00,
2014-01-28 22:04:00,-5.6,-22.4,29.87,NE,45,1.1,3.7,43,0.00,,,0.00,WUHU216TE923,2014-01-29 04:04:00,
2014-01-28 22:09:00,-6.0,-22.8,29.87,ESE,113,1.1,3.7,43,0.00,,,0.00,WUHU216TE923,2014-01-29 04:09:00,
2014-01-28 22:14:00,-5.6,-22.4,29.88,SE,135,1.2,4.2,43,0.00,,,0.00,WUHU216TE923,2014-01-29 04:14:00,
2014-01-28 22:19:00,-5.6,-22.4,29.88,NE,45,1.5,4.2,43,0.00,,,0.00,WUHU216TE923,2014-01-29 04:19:00,
2014-01-28 22:24:00,-5.6,-22.4,29.88,SE,135,1.8,3.4,43,0.00,,,0.00,WUHU216TE923,2014-01-29 04:24:00,
2014-01-28 22:29:00,-5.6,-22.4,29.88,SE,135,1.8,4.1,43,0.00,,,0.00,WUHU216TE923,2014-01-29 04:29:00,
2014-01-28 22:34:00,-5.6,-22.4,29.87,South,180,1.6,4.1,43,0.00,,,0.00,WUHU216TE923,2014-01-29 04:34:00,
2014-01-28 22:39:00,-5.6,-22.4,29.87,ENE,68,1.5,1.7,43,0.00,,,0.00,WUHU216TE923,2014-01-29 04:39:00,
2014-01-28 22:44:00,-5.6,-22.0,29.87,SSE,158,1.3,1.5,44,0.00,,,0.00,WUHU216TE923,2014-01-29 04:44:00,
2014-01-28 22:49:00,-6.0,-22.4,29.87,North,0,0.8,1.5,44,0.00,,,0.00,WUHU216TE923,2014-01-29 04:49:00,
2014-01-28 22:54:00,-5.6,-22.0,29.87,ESE,113,0.9,3.0,44,0.00,,,0.00,WUHU216TE923,2014-01-29 04:54:00,
2014-01-28 22:59:00,-5.6,-22.0,29.87,ESE,113,1.4,3.0,44,0.00,,,0.00,WUHU216TE923,2014-01-29 04:59:00,
2014-01-28 23:01:00,-6.0,-22.4,29.87,ENE,68,1.4,2.2,44,0.00,,,0.00,WUHU216TE923,2014-01-29 05:01:00,
2014-01-28 23:02:00,-6.0,-22.4,29.87,ENE,68,1.4,2.2,44,0.00,,,0.00,WUHU216TE923,2014-01-29 05:02:00,
2014-01-28 23:07:00,-6.0,-22.4,29.87,ESE,113,1.2,1.6,44,0.00,,,0.00,WUHU216TE923,2014-01-29 05:07:00,
2014-01-28 23:12:00,-6.5,-22.8,29.86,NE,45,1.3,1.6,44,0.00,,,0.00,WUHU216TE923,2014-01-29 05:12:00,
2014-01-28 23:17:00,-6.5,-22.8,29.86,WSW,248,1.2,1.4,44,0.00,,,0.00,WUHU216TE923,2014-01-29 05:17:00,
2014-01-28 23:22:00,-6.5,-22.8,29.86,East,90,1.0,1.7,44,0.00,,,0.00,WUHU216TE923,2014-01-29 05:22:00,
2014-01-28 23:27:00,-6.5,-22.4,29.86,South,180,1.1,2.2,45,0.00,,,0.00,WUHU216TE923,2014-01-29 05:27:00,
2014-01-28 23:32:00,-7.1,-22.9,29.86,SSE,158,1.4,2.2,45,0.00,,,0.00,WUHU216TE923,2014-01-29 05:32:00,
2014-01-28 23:37:00,-7.1,-22.9,29.86,WNW,293,1.2,2.6,45,0.00,,,0.00,WUHU216TE923,2014-01-29 05:37:00,
2014-01-28 23:42:00,-7.1,-22.9,29.86,ENE,68,1.0,2.6,45,0.00,,,0.00,WUHU216TE923,2014-01-29 05:42:00,
2014-01-28 23:47:00,-7.1,-22.5,29.86,South,180,1.5,1.9,46,0.00,,,0.00,WUHU216TE923,2014-01-29 05:47:00,
2014-01-28 23:52:00,-6.5,-22.0,29.85,ENE,68,1.6,2.1,46,0.00,,,0.00,WUHU216TE923,2014-01-29 05:52:00,
2014-01-28 23:57:00,-7.1,-22.5,29.85,ENE,68,1.8,2.1,46,0.00,,,0.00,WUHU216TE923,2014-01-29 05:57:00,